Latest Weather Observations for Urandangi

IDQ60801

Issued at 10:02 pm EST Wednesday 28 January 2015 (issued every 30 minutes, with the page automatically refreshed every 10 minutes)

About weather observations | Map of weather stations | Latest weather observations for QLD | Other Formats
Station Details ID: 037058 Name: URANDANGI AERODROME Lat: -21.60 Lon: 138.37 Height: 178.6 m
Data from the previous 72 hours. | See also: Recent months at Urandangi
Date/Time
EST
Temp
°C
App
Temp
°C
Dew
Point
Rel
Hum
%
Delta-T
°C
Wind Press
QNH
hPa
Press
MSL
hPa
Rain
since 9 am
mm
Dir
 
Spd
km/h
Gust
km/h
Spd
kts
Gust
kts
28/10:00pm 23.6 20.2 1.9 24 10.4 S 9 13 5 7 1007.0 1005.6 0.0
28/09:30pm 24.3 20.9 1.9 23 10.7 S 9 11 5 6 1006.7 1005.3 0.0
28/09:00pm 25.5 21.7 1.6 21 11.5 S 11 13 6 7 1006.4 1005.0 0.0
28/08:30pm 26.4 22.8 0.9 19 12.2 S 9 11 5 6 1006.2 1004.8 0.0
28/08:00pm 28.6 24.5 -0.5 15 13.8 S 11 15 6 8 1006.0 1004.7 0.0
28/07:30pm 30.8 25.3 -1.9 12 15.3 SSE 17 24 9 13 1005.7 1004.4 0.0
28/07:00pm 32.4 26.4 -1.8 11 16.3 S 20 28 11 15 1005.3 1003.9 0.0
28/06:30pm 33.2 27.4 -1.2 11 16.6 S 19 26 10 14 1005.1 1003.7 0.0
28/06:00pm 33.7 27.6 -2.1 10 17.1 S 20 30 11 16 1004.7 1003.3 0.0
28/05:30pm 34.0 28.1 -0.6 11 16.9 S 20 32 11 17 1004.4 1003.0 0.0
28/05:00pm 34.4 27.8 -0.3 11 17.2 S 24 35 13 19 1004.1 1002.7 0.0
28/04:30pm 34.1 27.5 -0.5 11 17.0 S 24 35 13 19 1004.3 1002.9 0.0
28/04:00pm 34.3 28.1 -0.4 11 17.1 S 22 43 12 23 1004.5 1003.1 0.0
28/03:30pm 34.3 26.9 -0.4 11 17.1 SSW 28 41 15 22 1004.7 1003.3 0.0
28/03:00pm 33.9 27.3 -0.7 11 17.0 S 24 37 13 20 1005.0 1003.6 0.0
28/02:30pm 33.8 27.3 0.5 12 16.6 SSE 24 35 13 19 1005.3 1003.9 0.0
28/02:00pm 33.0 26.8 -0.2 12 16.3 SSE 22 35 12 19 1005.7 1004.4 0.0
28/01:30pm 32.8 27.1 0.8 13 15.9 SSE 20 39 11 21 1006.2 1004.8 0.0
28/01:00pm 32.9 26.7 1.9 14 15.7 S 24 37 13 20 1006.5 1005.1 0.0
28/12:30pm 31.9 24.8 1.1 14 15.3 SSE 28 39 15 21 1006.9 1005.5 0.0
28/12:00pm 31.6 24.8 0.9 14 15.2 SSE 26 37 14 20 1007.4 1006.0 0.0
28/11:30am 30.6 23.4 1.0 15 14.6 SSE 28 37 15 20 1007.8 1006.4 0.0
28/11:00am 30.6 23.6 1.9 16 14.4 S 28 37 15 20 1008.1 1006.7 0.0
28/10:30am 29.7 23.7 1.2 16 14.0 SSE 22 33 12 18 1008.3 1006.9 0.0
28/10:00am 29.4 23.7 2.6 18 13.5 SSE 22 33 12 18 1008.3 1006.9 0.0
28/09:30am 27.7 21.3 3.4 21 12.2 SSE 26 37 14 20 1008.5 1007.1 0.0
28/09:00am 26.4 19.8 2.3 21 11.8 SSE 26 37 14 20 1008.7 1007.3 0.0
28/08:30am 25.4 20.3 4.0 25 10.7 SSE 20 32 11 17 1008.6 1007.2 0.0
28/08:00am 23.9 20.6 4.8 29 9.6 SSE 11 15 6 8 1008.4 1007.0 0.0
28/07:30am 21.4 19.2 5.3 35 8.1 S 6 7 3 4 1008.5 1007.1 0.0
28/07:00am 18.6 17.5 5.1 41 6.6 CALM 0 0 0 0 1008.2 1006.8 0.0
28/06:30am 18.2 16.3 4.7 41 6.5 SSE 4 6 2 3 1007.8 1006.4 0.0
28/06:00am 18.6 16.2 4.4 39 6.9 S 6 7 3 4 1007.6 1006.2 0.0
28/05:30am 19.2 16.7 3.8 36 7.4 S 6 7 3 4 1007.5 1006.1 0.0
28/05:00am 20.0 16.9 3.7 34 7.8 S 9 11 5 6 1007.4 1006.0 0.0
28/04:30am 20.8 17.3 3.5 32 8.3 S 11 13 6 7 1007.2 1005.8 0.0
28/04:00am 20.5 17.1 4.1 34 8.0 SSE 11 15 6 8 1007.0 1005.6 0.0
28/03:30am 20.9 17.5 4.0 33 8.2 S 11 13 6 7 1006.7 1005.3 0.0
28/03:00am 21.3 17.6 4.4 33 8.3 S 13 15 7 8 1006.5 1005.1 0.0
28/02:30am 21.2 17.9 4.3 33 8.3 S 11 13 6 7 1006.8 1005.4 0.0
28/02:00am 21.3 18.0 4.4 33 8.3 S 11 11 6 6 1007.0 1005.6 0.0
28/01:30am 21.4 18.2 5.3 35 8.0 S 11 11 6 6 1007.3 1005.9 0.0
28/01:00am 22.0 18.8 5.0 33 8.5 S 11 13 6 7 1007.6 1006.2 0.0
28/12:30am 22.2 19.3 4.7 32 8.7 SSE 9 9 5 5 1007.8 1006.4 0.0
28/12:00am 22.7 20.2 4.7 31 9.0 S 7 9 4 5 1008.0 1006.6 0.0
 
Date/Time
EST
Temp
°C
App
Temp
°C
Dew
Point
Rel
Hum
%
Delta-T
°C
Wind Press
QNH
hPa
Press
MSL
hPa
Rain
since 9 am
mm
Dir
 
Spd
km/h
Gust
km/h
Spd
kts
Gust
kts
27/11:30pm 23.9 21.4 3.8 27 9.9 SSE 6 6 3 3 1008.0 1006.6 0.0
27/11:00pm 23.6 21.1 3.5 27 9.9 SSE 6 6 3 3 1008.0 1006.6 0.0
27/10:30pm 24.6 22.6 4.4 27 10.1 SSE 4 6 2 3 1007.7 1006.3 0.0
27/10:00pm 24.8 21.8 4.0 26 10.4 SSE 9 9 5 5 1007.3 1005.9 0.0
27/09:30pm 25.5 22.4 3.5 24 10.9 SSE 9 11 5 6 1007.1 1005.7 0.0
27/09:00pm 27.1 23.5 2.9 21 12.1 S 11 13 6 7 1006.9 1005.5 0.0
27/08:30pm 28.2 24.5 2.4 19 12.8 S 11 13 6 7 1006.8 1005.4 0.0
27/08:00pm 29.9 26.0 1.4 16 14.1 S 11 15 6 8 1006.5 1005.1 0.0
27/07:30pm 31.3 26.9 0.6 14 15.1 S 13 17 7 9 1006.2 1004.8 0.0
27/07:00pm 33.1 27.5 -0.1 12 16.3 S 19 28 10 15 1005.6 1004.2 0.0
27/06:30pm 33.8 28.1 0.5 12 16.6 S 20 32 11 17 1005.4 1004.0 0.0
27/06:00pm 34.5 28.3 -0.2 11 17.2 S 22 28 12 15 1005.2 1003.8 0.0
27/05:30pm 35.0 28.7 -1.1 10 17.6 S 22 30 12 16 1005.0 1003.6 0.0
27/05:00pm 35.1 28.6 0.2 11 17.5 SSE 24 35 13 19 1005.1 1003.7 0.0
27/04:30pm 34.9 28.4 0.1 11 17.3 S 24 33 13 18 1005.3 1003.9 0.0
27/04:00pm 35.1 29.2 1.5 12 17.2 SSE 22 30 12 16 1005.6 1004.2 0.0
27/03:30pm 35.2 29.5 2.6 13 16.9 S 22 33 12 18 1005.8 1004.5 0.0
27/03:00pm 35.2 29.3 3.7 14 16.7 SSE 24 37 13 20 1006.3 1004.9 0.0
27/02:30pm 35.4 29.9 3.9 14 16.7 SSE 22 33 12 18 1006.5 1005.1 0.0
27/02:00pm 34.4 28.9 4.0 15 16.1 SSE 22 35 12 19 1006.8 1005.4 0.0
27/01:30pm 33.5 27.1 3.3 15 15.7 SSE 26 41 14 22 1007.3 1005.9 0.0
27/01:00pm 33.6 28.3 5.2 17 15.3 SSE 22 39 12 21 1007.8 1006.4 0.0
27/12:30pm 33.3 28.2 4.1 16 15.4 SSE 20 30 11 16 1008.5 1007.1 0.0
27/12:00pm 32.6 27.6 4.4 17 14.9 SSE 20 33 11 18 1008.6 1007.2 0.0
27/11:30am 31.8 25.3 4.6 18 14.3 SSE 28 33 15 18 1008.8 1007.4 0.0
27/11:00am 31.2 25.0 4.1 18 14.1 SSE 26 39 14 21 1009.0 1007.6 0.0
27/10:30am 31.3 26.0 4.9 19 13.9 SSE 22 30 12 16 1009.5 1008.1 0.0
27/10:00am 29.9 24.1 4.5 20 13.2 SE 24 33 13 18 1009.6 1008.2 0.0
27/09:30am 28.9 22.7 4.4 21 12.6 SE 26 33 14 18 1009.6 1008.2 0.0
27/09:00am 28.1 22.4 5.0 23 12.0 SE 24 33 13 18 1009.7 1008.3 0.0
27/08:30am 27.4 22.7 6.2 26 11.2 SSE 20 30 11 16 1009.8 1008.4 0.0
27/08:00am 26.1 22.0 6.2 28 10.4 SSE 17 24 9 13 1009.5 1008.1 0.0
27/07:30am 24.9 22.0 6.6 31 9.6 S 11 15 6 8 1009.3 1007.9 0.0
27/07:00am 22.7 20.6 6.5 35 8.4 S 7 11 4 6 1008.9 1007.5 0.0
27/06:30am 22.2 19.6 6.0 35 8.2 S 9 13 5 7 1008.3 1006.9 0.0
27/06:00am 23.1 20.1 6.0 33 8.8 S 11 15 6 8 1007.9 1006.5 0.0
27/05:30am 22.1 19.1 5.9 35 8.2 S 11 13 6 7 1008.0 1006.6 0.0
27/05:00am 22.9 20.2 5.8 33 8.7 S 9 13 5 7 1008.0 1006.6 0.0
27/04:30am 24.1 20.5 5.0 29 9.7 S 13 15 7 8 1007.7 1006.3 0.0
27/04:00am 24.9 21.6 4.6 27 10.3 SSW 11 15 6 8 1007.8 1006.4 0.0
27/03:30am 25.8 22.1 4.3 25 10.9 SSW 13 17 7 9 1007.6 1006.2 0.0
27/03:00am 26.0 22.3 4.5 25 10.9 S 13 17 7 9 1007.4 1006.0 0.0
27/02:30am 27.0 23.2 4.1 23 11.6 S 13 20 7 11 1007.4 1006.0 0.0
27/02:00am 27.9 24.2 4.2 22 12.1 S 13 19 7 10 1007.7 1006.3 0.0
27/01:30am 28.1 23.9 3.7 21 12.4 S 15 20 8 11 1008.1 1006.7 0.0
27/01:00am 28.3 24.5 3.9 21 12.5 S 13 19 7 10 1008.6 1007.2 0.0
27/12:30am 28.2 24.1 4.5 22 12.2 S 15 19 8 10 1008.9 1007.5 0.0
27/12:00am 28.5 24.0 4.1 21 12.5 SSE 17 24 9 13 1008.9 1007.5 0.0
 
Date/Time
EST
Temp
°C
App
Temp
°C
Dew
Point
Rel
Hum
%
Delta-T
°C
Wind Press
QNH
hPa
Press
MSL
hPa
Rain
since 9 am
mm
Dir
 
Spd
km/h
Gust
km/h
Spd
kts
Gust
kts
26/11:30pm 28.4 24.5 5.3 23 12.1 S 15 19 8 10 1009.2 1007.8 0.0
26/11:00pm 28.8 25.0 5.6 23 12.2 SSE 15 19 8 10 1009.4 1008.0 0.0
26/10:30pm 28.6 25.4 6.7 25 11.7 S 13 15 7 8 1009.1 1007.7 0.0
26/10:00pm 28.9 26.1 6.9 25 11.9 SSE 11 15 6 8 1008.7 1007.3 0.0
26/09:30pm 30.3 26.6 6.2 22 12.9 SSE 15 19 8 10 1008.1 1006.7 0.0
26/09:00pm 31.4 27.4 6.5 21 13.5 SSE 17 22 9 12 1007.7 1006.3 0.0
26/08:30pm 31.5 27.3 5.8 20 13.8 SSE 17 20 9 11 1007.5 1006.1 0.0
26/08:00pm 32.8 28.2 5.4 18 14.7 SSE 19 26 10 14 1007.3 1005.9 0.0
26/07:30pm 33.8 28.2 3.6 15 15.8 SSE 22 30 12 16 1007.1 1005.7 0.0
26/07:00pm 34.9 29.9 4.4 15 16.3 SSE 20 33 11 18 1006.6 1005.2 0.0
26/06:30pm 36.0 29.6 3.3 13 17.3 S 26 39 14 21 1006.0 1004.7 0.0
26/06:00pm 36.8 30.9 3.9 13 17.6 S 24 39 13 21 1005.8 1004.5 0.0
26/05:30pm 36.9 30.3 4.0 13 17.6 SSE 28 35 15 19 1006.0 1004.7 0.0
26/05:00pm 36.9 30.6 4.0 13 17.7 SSE 26 33 14 18 1006.0 1004.7 0.0
26/04:30pm 36.8 30.9 3.9 13 17.6 SSE 24 35 13 19 1006.3 1004.9 0.0
26/04:00pm 36.9 30.8 5.0 14 17.4 SSE 26 37 14 20 1006.6 1005.2 0.0
26/03:30pm 35.9 30.4 4.2 14 17.0 S 22 32 12 17 1006.8 1005.4 0.0
26/03:00pm 35.7 29.5 4.1 14 16.9 SSE 26 33 14 18 1006.9 1005.5 0.0
26/02:30pm 35.5 29.6 3.9 14 16.8 SSE 24 37 13 20 1007.4 1006.0 0.0
26/02:00pm 35.5 28.7 2.9 13 17.1 S 28 44 15 24 1007.9 1006.5 0.0
26/01:30pm 35.9 30.3 3.2 13 17.2 SSE 22 33 12 18 1008.3 1006.9 0.0
26/01:00pm 35.9 29.5 3.2 13 17.2 SSE 26 39 14 21 1008.7 1007.3 0.0
26/12:30pm 35.9 29.5 3.2 13 17.2 SSE 26 37 14 20 1009.0 1007.6 0.0
26/12:00pm 35.1 28.0 1.5 12 17.2 SSE 28 37 15 20 1009.4 1008.0 0.0
26/11:30am 33.5 27.2 1.3 13 16.2 SSE 24 33 13 18 1009.8 1008.4 0.0
26/11:00am 33.7 27.4 3.5 15 15.8 SSE 26 35 14 19 1010.1 1008.7 0.0
26/10:30am 32.6 25.9 3.5 16 15.1 SSE 28 37 15 20 1010.3 1008.9 0.0
26/10:00am 32.2 25.6 4.1 17 14.7 SSE 28 37 15 20 1010.6 1009.2 0.0
26/09:30am 31.4 25.9 5.8 20 13.7 SSE 24 33 13 18 1010.7 1009.4 0.0
26/09:00am 30.3 25.0 4.9 20 13.3 SSE 22 30 12 16 1010.9 1009.6 0.0
26/08:30am 29.4 24.2 5.5 22 12.6 SSE 22 28 12 15 1010.7 1009.4 0.0
26/08:00am 28.6 25.2 7.8 27 11.4 SSE 15 22 8 12 1010.6 1009.2 0.0
26/07:30am 27.7 25.2 8.1 29 10.7 S 11 13 6 7 1010.4 1009.0 0.0
26/07:00am 27.7 24.5 7.0 27 11.1 SSE 13 20 7 11 1009.6 1008.2 0.0
26/06:30am 26.6 24.1 6.6 28 10.6 SE 9 11 5 6 1009.4 1008.0 0.0
26/06:00am 27.3 24.1 6.7 27 11.0 SSE 13 19 7 10 1009.0 1007.6 0.0
26/05:30am 27.2 24.3 6.6 27 10.9 SSE 11 17 6 9 1008.7 1007.3 0.0
26/05:00am 28.8 25.5 6.2 24 12.0 SSE 13 17 7 9 1008.3 1006.9 0.0
26/04:30am 28.3 25.5 7.0 26 11.4 SSE 11 13 6 7 1008.1 1006.7 0.0
26/04:00am 29.9 26.2 6.5 23 12.6 ESE 15 19 8 10 1007.6 1006.2 0.0
26/03:30am 30.4 26.5 7.0 23 12.7 SE 17 22 9 12 1008.0 1006.6 0.0
26/03:00am 30.1 26.2 7.3 24 12.5 SE 17 22 9 12 1007.6 1006.2 0.0
26/02:30am 28.4 25.8 7.6 27 11.3 SE 11 15 6 8 1007.6 1006.2 0.0
26/02:00am 28.8 26.0 8.5 28 11.2 ESE 13 15 7 8 1007.8 1006.4 0.0
26/01:30am 28.9 26.5 8.6 28 11.2 ESE 11 11 6 6 1008.3 1006.9 0.0
26/01:00am 31.2 29.1 8.2 24 12.8 SE 9 13 5 7 1008.3 1006.9 0.0
26/12:30am 32.0 29.5 8.3 23 13.3 SE 11 15 6 8 1008.1 1006.7 0.0
26/12:00am 32.3 29.1 8.5 23 13.4 SSE 15 20 8 11 1007.9 1006.5 0.0
 
Date/Time
EST
Temp
°C
App
Temp
°C
Dew
Point
Rel
Hum
%
Delta-T
°C
Wind Press
QNH
hPa
Press
MSL
hPa
Rain
since 9 am
mm
Dir
 
Spd
km/h
Gust
km/h
Spd
kts
Gust
kts
25/11:30pm 32.8 29.3 8.9 23 13.6 SSE 17 26 9 14 1007.9 1006.5 0.0
25/11:00pm 33.1 30.4 10.4 25 13.2 SSE 15 22 8 12 1007.8 1006.4 0.0
25/10:30pm 33.9 30.7 9.9 23 13.9 SSE 17 22 9 12 1007.7 1006.3 0.0

Other Formats:

Comma delimited format used in spreadsheet applications
http://www.bom.gov.au/fwo/IDQ60801/IDQ60801.94344.axf

JavaScript Object Notation format (JSON) in row-major order
http://www.bom.gov.au/fwo/IDQ60801/IDQ60801.94344.json